Blackwater, Mississippi
Current Conditions -  °F | °C
As of 2:15 AM on Thursday 27 Nov 2014 (Local Time) from KUOX Reporting Station
Clear Clear  
Wind Chill: 29°   Ceiling: Unl
Heat Index: 37°   Visibility: 10mi
Dew Point: 28°   Wind: 13mph
Humidity: 70%   Direction: 320°NW
Pressure: 30.27"   Gusts: 21mph
Location:  34.6374°N, 89.4672°W
Report Text: KUOX 270815Z AUTO 32011G18KT 10SM CLR 03/M02 A3027 RMK AO2 PWINO PNO
Loading
Personal Weather Stations






























Interactive Weather Map New forecast layout! Learn more

10-Day Weather Forecast

Advertisements
Track Severe Weather on mobile